Time;durP1;ratioP1;P1;durP2;ratioP2;P2;SDS_P1;SDS_P2;PMS_P1;PMS_P2;Temp;Humidity;BMP_temperature;BMP_pressure;BME280_temperature;BME280_humidity;BME280_pressure;Samples;Min_cycle;Max_cycle;Signal;HPM_P1;HPM_P2
2023/01/08 00:01:13;;;;;;;;;;;;;;;;;;5034634;28;20394;-57
2023/01/08 00:03:39;;;;;;;;;;;;;;;;;;5034042;28;19921;-57
2023/01/08 00:06:06;;;;;;;;;;;;;;;;;;5032984;28;19917;-58
2023/01/08 00:08:32;;;;;;;;;;;;;;;;;;5047865;28;19932;-57
2023/01/08 00:10:57;;;;;;;;;;;;;;;;;;5032950;28;19917;-57
2023/01/08 00:13:22;;;;;;;;;;;;;;;;;;5034337;28;19916;-58
2023/01/08 00:15:47;;;;;;;;;;;;;;;;;;5031404;28;20317;-57
2023/01/08 00:18:13;;;;;;;;;;;;;;;;;;5031627;28;19921;-57
2023/01/08 00:20:42;;;;;;;;;;;;;;;;;;5033528;28;19917;-57
2023/01/08 00:23:11;;;;;;;;;;;;;;;;;;5031168;28;19960;-57
2023/01/08 00:25:36;;;;;;;;;;;;;;;;;;5034503;28;19917;-57
2023/01/08 00:28:01;;;;;;;;;;;;;;;;;;5037415;28;19913;-59
2023/01/08 00:30:26;;;;;;;;;;;;;;;;;;5036802;28;19921;-59
2023/01/08 00:32:52;;;;;;;;;;;;;;;;;;5034998;28;19913;-59
2023/01/08 00:35:17;;;;;;;;;;;;;;;;;;5037270;28;19935;-59
2023/01/08 00:37:42;;;;;;;;;;;;;;;;;;5034649;28;20538;-59
2023/01/08 00:40:08;;;;;;;;;;;;;;;;;;5035615;28;19974;-59
2023/01/08 00:42:33;;;;;;;;;;;;;;;;;;5037577;28;20376;-67
2023/01/08 00:44:58;;;;;;;;;;;;;;;;;;5035976;28;20662;-59
2023/01/08 00:47:23;;;;;;;;;;;;;;;;;;5038434;28;20374;-59
2023/01/08 00:49:49;;;;;;;;;;;;;;;;;;5031468;28;19999;-59
2023/01/08 00:52:14;;;;;;;;;;;;;;;;;;5032330;28;20480;-59
2023/01/08 00:54:39;;;;;;;;;;;;;;;;;;5035607;28;20023;-59
2023/01/08 00:57:04;;;;;;;;;;;;;;;;;;5033272;28;20286;-60
2023/01/08 00:59:30;;;;;;;;;;;;;;;;;;5035727;28;19912;-59
2023/01/08 01:01:55;;;;;;;;;;;;;;;;;;5032200;28;19916;-59
2023/01/08 01:04:20;;;;;;;;;;;;;;;;;;5034793;28;20291;-59
2023/01/08 01:06:45;;;;;;;;;;;;;;;;;;5035926;28;19932;-59
2023/01/08 01:09:11;;;;;;;;;;;;;;;;;;5036237;28;20054;-60
2023/01/08 01:11:36;;;;;;;;;;;;;;;;;;5036654;28;19913;-67
2023/01/08 01:14:01;;;;;;;;;;;;;;;;;;5036091;28;19935;-68
2023/01/08 01:16:27;;;;;;;;;;;;;;;;;;5035783;28;19928;-67
2023/01/08 01:18:53;;;;;;;;;;;;;;;;;;5036643;28;20322;-67
2023/01/08 01:21:29;;;;;;;;;;;;;;;;;;5036852;28;19916;-65
2023/01/08 01:23:55;;;;;;;;;;;;;;;;;;5037709;28;19998;-66
2023/01/08 01:26:21;;;;;;;;;;;;;;;;;;5036934;28;20022;-67
2023/01/08 01:28:47;;;;;;;;;;;;;;;;;;5038699;28;19946;-66
2023/01/08 01:31:13;;;;;;;;;;;;;;;;;;5036008;28;20353;-67
2023/01/08 01:33:39;;;;;;;;;;;;;;;;;;5038100;28;19916;-67
2023/01/08 01:36:04;;;;;;;;;;;;;;;;;;5036235;28;20622;-67
2023/01/08 01:38:29;;;;;;;;;;;;;;;;;;5038805;28;20013;-67
2023/01/08 01:40:55;;;;;;;;;;;;;;;;;;5036592;28;19940;-67
2023/01/08 01:43:33;;;;;;;;;;;;;;;;;;5035921;28;19927;-67
2023/01/08 01:45:59;;;;;;;;;;;;;;;;;;5033559;28;20031;-67
2023/01/08 01:48:24;;;;;;;;;;;;;;;;;;5036289;28;20055;-67
2023/01/08 01:50:50;;;;;;;;;;;;;;;;;;5036963;28;20302;-67
2023/01/08 01:53:16;;;;;;;;;;;;;;;;;;5037049;28;19952;-67
2023/01/08 01:55:41;;;;;;;;;;;;;;;;;;5035997;28;20410;-67
2023/01/08 01:58:13;;;;;;;;;;;;;;;;;;5034161;28;20627;-67
2023/01/08 02:00:38;;;;;;;;;;;;;;;;;;5033210;28;19920;-67
2023/01/08 02:03:05;;;;;;;;;;;;;;;;;;5035233;28;19927;-67
2023/01/08 02:05:39;;;;;;;;;;;;;;;;;;5039637;28;19928;-66
2023/01/08 02:08:11;;;;;;;;;;;;;;;;;;5038120;28;19920;-66
2023/01/08 02:10:55;;;;;;;;;;;;;;;;;;5042982;28;19928;-67
2023/01/08 02:13:28;;;;;;;;;;;;;;;;;;5034764;28;20008;-66
2023/01/08 02:15:59;;;;;;;;;;;;;;;;;;5034957;28;19920;-67
2023/01/08 02:18:31;;;;;;;;;;;;;;;;;;5033092;28;20305;-67
2023/01/08 02:21:02;;;;;;;;;;;;;;;;;;5032072;28;19909;-66
2023/01/08 02:23:30;;;;;;;;;;;;;;;;;;5036119;28;19917;-67
2023/01/08 02:26:16;;;;;;;;;;;;;;;;;;5036298;28;20354;-67
2023/01/08 02:29:16;;;;;;;;;;;;;;;;;;5034148;28;20384;-67
2023/01/08 02:31:42;;;;;;;;;;;;;;;;;;5034303;28;19924;-66
2023/01/08 02:34:07;;;;;;;;;;;;;;;;;;5032768;28;19917;-66
2023/01/08 02:36:59;;;;;;;;;;;;;;;;;;5035396;28;20236;-66
2023/01/08 02:39:24;;;;;;;;;;;;;;;;;;5031347;28;20523;-66
2023/01/08 02:42:08;;;;;;;;;;;;;;;;;;5035070;28;19924;-66
2023/01/08 02:44:52;;;;;;;;;;;;;;;;;;5034601;28;19928;-67
2023/01/08 02:47:21;;;;;;;;;;;;;;;;;;5035199;28;19952;-66
2023/01/08 02:49:48;;;;;;;;;;;;;;;;;;5034570;28;19916;-66
2023/01/08 02:52:14;;;;;;;;;;;;;;;;;;5035182;28;19908;-66
2023/01/08 02:54:41;;;;;;;;;;;;;;;;;;5033862;28;19927;-66
2023/01/08 02:57:10;;;;;;;;;;;;;;;;;;5032439;28;20459;-65
2023/01/08 02:59:36;;;;;;;;;;;;;;;;;;5037985;28;19917;-65
2023/01/08 03:02:02;;;;;;;;;;;;;;;;;;5036408;28;19912;-66
2023/01/08 03:04:29;;;;;;;;;;;;;;;;;;5035476;28;20007;-66
2023/01/08 03:06:55;;;;;;;;;;;;;;;;;;5036250;28;20278;-66
2023/01/08 03:09:20;;;;;;;;;;;;;;;;;;5035668;28;19951;-65
2023/01/08 03:11:51;;;;;;;;;;;;;;;;;;5047910;28;19940;-65
2023/01/08 03:14:26;;;;;;;;;;;;;;;;;;5037196;28;20023;-65
2023/01/08 03:16:56;;;;;;;;;;;;;;;;;;5035147;28;19984;-65
2023/01/08 03:19:27;;;;;;;;;;;;;;;;;;5035285;28;19917;-65
2023/01/08 03:21:52;;;;;;;;;;;;;;;;;;5050244;28;19916;-65
2023/01/08 03:24:21;;;;;;;;;;;;;;;;;;5034384;28;19917;-64
2023/01/08 03:26:48;;;;;;;;;;;;;;;;;;5034622;28;19952;-63
2023/01/08 03:29:16;;;;;;;;;;;;;;;;;;5032672;28;20274;-63
2023/01/08 03:31:42;;;;;;;;;;;;;;;;;;5034657;28;19959;-64
2023/01/08 03:34:07;;;;;;;;;;;;;;;;;;5034297;28;20338;-64
2023/01/08 03:36:34;;;;;;;;;;;;;;;;;;5043308;28;19923;-64
2023/01/08 03:39:07;;;;;;;;;;;;;;;;;;5031044;28;19909;-64
2023/01/08 03:41:33;;;;;;;;;;;;;;;;;;5031097;28;19944;-64
2023/01/08 03:43:59;;;;;;;;;;;;;;;;;;5032336;28;19948;-64
2023/01/08 03:46:28;;;;;;;;;;;;;;;;;;5033620;28;19951;-64
2023/01/08 03:48:54;;;;;;;;;;;;;;;;;;5032445;28;20397;-63
2023/01/08 03:51:19;;;;;;;;;;;;;;;;;;5032434;28;19917;-64
2023/01/08 03:53:46;;;;;;;;;;;;;;;;;;5034994;28;19913;-63
2023/01/08 03:56:11;;;;;;;;;;;;;;;;;;5033674;28;19935;-64
2023/01/08 03:58:36;;;;;;;;;;;;;;;;;;5032028;28;19917;-64
2023/01/08 04:01:02;;;;;;;;;;;;;;;;;;5033454;28;19923;-64
2023/01/08 04:03:27;;;;;;;;;;;;;;;;;;5031363;28;19970;-64
2023/01/08 04:05:53;;;;;;;;;;;;;;;;;;5035578;28;19916;-63
2023/01/08 04:08:18;;;;;;;;;;;;;;;;;;5032446;28;20011;-64
2023/01/08 04:10:43;;;;;;;;;;;;;;;;;;5031468;28;19917;-63
2023/01/08 04:13:08;;;;;;;;;;;;;;;;;;5031783;28;20348;-64
2023/01/08 04:15:34;;;;;;;;;;;;;;;;;;5031352;28;19975;-63
2023/01/08 04:17:59;;;;;;;;;;;;;;;;;;5033249;28;19923;-63
2023/01/08 04:20:24;;;;;;;;;;;;;;;;;;5033410;28;19916;-63
2023/01/08 04:22:49;;;;;;;;;;;;;;;;;;5048500;28;19913;-63
2023/01/08 04:25:15;;;;;;;;;;;;;;;;;;5035918;28;19951;-63
2023/01/08 04:27:40;;;;;;;;;;;;;;;;;;5031735;28;20039;-63
2023/01/08 04:30:06;;;;;;;;;;;;;;;;;;5032117;28;19990;-63
2023/01/08 04:32:31;;;;;;;;;;;;;;;;;;5032943;28;19913;-63
2023/01/08 04:34:56;;;;;;;;;;;;;;;;;;5033356;28;20024;-63
2023/01/08 04:37:21;;;;;;;;;;;;;;;;;;5029894;28;19944;-63
2023/01/08 04:39:47;;;;;;;;;;;;;;;;;;5030292;28;19928;-63
2023/01/08 04:42:12;;;;;;;;;;;;;;;;;;5033302;28;20463;-63
2023/01/08 04:44:37;;;;;;;;;;;;;;;;;;5035363;28;19932;-63
2023/01/08 04:47:02;;;;;;;;;;;;;;;;;;5032108;28;20051;-63
2023/01/08 04:49:28;;;;;;;;;;;;;;;;;;5031795;28;19970;-63
2023/01/08 04:51:53;;;;;;;;;;;;;;;;;;5032003;28;19917;-63
2023/01/08 04:54:18;;;;;;;;;;;;;;;;;;5032151;28;20019;-64
2023/01/08 04:56:43;;;;;;;;;;;;;;;;;;5028462;28;20357;-64
2023/01/08 04:59:09;;;;;;;;;;;;;;;;;;5029584;28;19928;-64
2023/01/08 05:01:34;;;;;;;;;;;;;;;;;;5029237;28;19968;-63
2023/01/08 05:04:00;;;;;;;;;;;;;;;;;;5029443;28;19916;-63
2023/01/08 05:06:26;;;;;;;;;;;;;;;;;;5033751;28;20787;-63
2023/01/08 05:08:52;;;;;;;;;;;;;;;;;;5031297;28;20040;-63
2023/01/08 05:11:17;;;;;;;;;;;;;;;;;;5037115;28;20047;-64
2023/01/08 05:13:42;;;;;;;;;;;;;;;;;;5037196;28;19970;-64
2023/01/08 05:16:08;;;;;;;;;;;;;;;;;;5036551;28;20381;-63
2023/01/08 05:18:33;;;;;;;;;;;;;;;;;;5034862;28;19916;-63
2023/01/08 05:20:59;;;;;;;;;;;;;;;;;;5036048;28;20305;-63
2023/01/08 05:23:24;;;;;;;;;;;;;;;;;;5037735;28;19977;-64
2023/01/08 05:25:49;;;;;;;;;;;;;;;;;;5037952;28;19975;-64
2023/01/08 05:28:15;;;;;;;;;;;;;;;;;;5035565;28;19938;-64
2023/01/08 05:30:40;;;;;;;;;;;;;;;;;;5034779;28;20457;-64
2023/01/08 05:33:05;;;;;;;;;;;;;;;;;;5038456;28;19916;-63
2023/01/08 05:35:30;;;;;;;;;;;;;;;;;;5034839;28;20343;-64
2023/01/08 05:37:58;;;;;;;;;;;;;;;;;;5032136;28;20228;-63
2023/01/08 05:40:23;;;;;;;;;;;;;;;;;;5047685;28;19928;-63
2023/01/08 05:42:48;;;;;;;;;;;;;;;;;;5034901;28;19916;-63
2023/01/08 05:45:15;;;;;;;;;;;;;;;;;;5037041;28;19908;-63
2023/01/08 05:47:40;;;;;;;;;;;;;;;;;;5035910;28;19917;-63
2023/01/08 05:50:06;;;;;;;;;;;;;;;;;;5036267;28;19924;-63
2023/01/08 05:52:31;;;;;;;;;;;;;;;;;;5035547;28;19923;-63
2023/01/08 05:54:58;;;;;;;;;;;;;;;;;;5035124;28;19925;-63
2023/01/08 05:57:24;;;;;;;;;;;;;;;;;;5035453;28;19920;-63
2023/01/08 05:59:49;;;;;;;;;;;;;;;;;;5035202;28;19927;-62
2023/01/08 06:02:14;;;;;;;;;;;;;;;;;;5034714;28;19913;-63
2023/01/08 06:04:40;;;;;;;;;;;;;;;;;;5036523;28;19921;-63
2023/01/08 06:07:05;;;;;;;;;;;;;;;;;;5034188;28;19913;-64
2023/01/08 06:09:30;;;;;;;;;;;;;;;;;;5035361;28;19929;-65
2023/01/08 06:11:56;;;;;;;;;;;;;;;;;;5036994;28;19916;-65
2023/01/08 06:14:22;;;;;;;;;;;;;;;;;;5035617;28;19988;-64
2023/01/08 06:16:47;;;;;;;;;;;;;;;;;;5042698;28;19921;-64
2023/01/08 06:19:12;;;;;;;;;;;;;;;;;;5034655;28;20005;-64
2023/01/08 06:21:38;;;;;;;;;;;;;;;;;;5042466;28;20330;-64
2023/01/08 06:24:03;;;;;;;;;;;;;;;;;;5036428;28;19916;-64
2023/01/08 06:26:28;;;;;;;;;;;;;;;;;;5034149;28;19934;-64
2023/01/08 06:28:54;;;;;;;;;;;;;;;;;;5034414;28;20304;-64
2023/01/08 06:31:19;;;;;;;;;;;;;;;;;;5031928;28;19912;-64
2023/01/08 06:33:44;;;;;;;;;;;;;;;;;;5043459;28;19913;-64
2023/01/08 06:36:09;;;;;;;;;;;;;;;;;;5033670;28;19924;-63
2023/01/08 06:38:35;;;;;;;;;;;;;;;;;;5036091;28;19978;-63
2023/01/08 06:41:04;;;;;;;;;;;;;;;;;;5032345;28;19959;-64
2023/01/08 06:43:29;;;;;;;;;;;;;;;;;;5035450;28;19920;-64
2023/01/08 06:45:57;;;;;;;;;;;;;;;;;;5035185;28;19978;-63
2023/01/08 06:48:22;;;;;;;;;;;;;;;;;;5032411;28;19919;-63
2023/01/08 06:50:48;;;;;;;;;;;;;;;;;;5035921;28;19913;-63
2023/01/08 06:53:13;;;;;;;;;;;;;;;;;;5037087;28;19924;-63
2023/01/08 06:55:38;;;;;;;;;;;;;;;;;;5032723;28;19916;-64
2023/01/08 06:58:04;;;;;;;;;;;;;;;;;;5029515;28;19939;-64
2023/01/08 07:00:29;;;;;;;;;;;;;;;;;;5032103;28;19967;-64
2023/01/08 07:02:54;;;;;;;;;;;;;;;;;;5033775;28;19964;-62
2023/01/08 07:05:20;;;;;;;;;;;;;;;;;;5031800;28;19924;-57
2023/01/08 07:07:45;;;;;;;;;;;;;;;;;;5033923;28;20504;-57
2023/01/08 07:10:11;;;;;;;;;;;;;;;;;;5032963;28;19944;-56
2023/01/08 07:12:36;;;;;;;;;;;;;;;;;;5034402;28;19975;-57
2023/01/08 07:15:02;;;;;;;;;;;;;;;;;;5031509;28;19966;-55
2023/01/08 07:17:27;;;;;;;;;;;;;;;;;;5034046;28;20015;-56
2023/01/08 07:19:52;;;;;;;;;;;;;;;;;;5034015;28;20685;-56
2023/01/08 07:22:19;;;;;;;;;;;;;;;;;;5033153;28;19917;-57
2023/01/08 07:24:44;;;;;;;;;;;;;;;;;;5030864;28;19927;-57
2023/01/08 07:27:09;;;;;;;;;;;;;;;;;;5030180;28;19916;-58
2023/01/08 07:29:34;;;;;;;;;;;;;;;;;;5027569;28;20017;-57
2023/01/08 07:32:00;;;;;;;;;;;;;;;;;;5033373;28;20314;-59
2023/01/08 07:34:25;;;;;;;;;;;;;;;;;;5040182;28;19916;-57
2023/01/08 07:36:50;;;;;;;;;;;;;;;;;;5034096;28;19920;-58
2023/01/08 07:39:15;;;;;;;;;;;;;;;;;;5032426;28;20096;-58
2023/01/08 07:41:41;;;;;;;;;;;;;;;;;;5033316;28;19924;-58
2023/01/08 07:44:06;;;;;;;;;;;;;;;;;;5047179;28;20254;-58
2023/01/08 07:46:31;;;;;;;;;;;;;;;;;;5033672;28;19913;-58
2023/01/08 07:48:56;;;;;;;;;;;;;;;;;;5035984;28;20385;-58
2023/01/08 07:51:22;;;;;;;;;;;;;;;;;;5030941;28;19935;-57
2023/01/08 07:53:47;;;;;;;;;;;;;;;;;;5037258;28;19913;-58
2023/01/08 07:56:12;;;;;;;;;;;;;;;;;;5033593;28;19924;-57
2023/01/08 07:58:38;;;;;;;;;;;;;;;;;;5031599;28;19942;-58
2023/01/08 08:01:05;;;;;;;;;;;;;;;;;;5029515;28;20019;-57
2023/01/08 08:03:30;;;;;;;;;;;;;;;;;;5032157;28;19913;-57
2023/01/08 08:05:58;;;;;;;;;;;;;;;;;;5033883;28;19917;-58
2023/01/08 08:08:23;;;;;;;;;;;;;;;;;;5036919;28;19991;-58
2023/01/08 08:10:48;;;;;;;;;;;;;;;;;;5031168;28;19996;-58
2023/01/08 08:13:13;;;;;;;;;;;;;;;;;;5034205;28;19979;-58
2023/01/08 08:15:40;;;;;;;;;;;;;;;;;;5034638;28;20532;-63
2023/01/08 08:18:05;;;;;;;;;;;;;;;;;;5033775;28;19917;-57
2023/01/08 08:20:31;;;;;;;;;;;;;;;;;;5030599;28;20422;-58
2023/01/08 08:23:02;;;;;;;;;;;;;;;;;;5033424;28;20362;-58
2023/01/08 08:25:28;;;;;;;;;;;;;;;;;;5033787;28;19921;-58
2023/01/08 08:27:55;;;;;;;;;;;;;;;;;;5032185;28;19924;-57
2023/01/08 08:30:20;;;;;;;;;;;;;;;;;;5030168;28;19917;-57
2023/01/08 08:32:46;;;;;;;;;;;;;;;;;;5036144;28;20007;-58
2023/01/08 08:35:11;;;;;;;;;;;;;;;;;;5037407;28;19917;-58
2023/01/08 08:37:36;;;;;;;;;;;;;;;;;;5034130;28;19917;-58
2023/01/08 08:40:01;;;;;;;;;;;;;;;;;;5030675;28;19913;-58
2023/01/08 08:42:27;;;;;;;;;;;;;;;;;;5032794;28;19921;-58
2023/01/08 08:44:52;;;;;;;;;;;;;;;;;;5035732;28;19928;-58
2023/01/08 08:47:17;;;;;;;;;;;;;;;;;;5032735;28;19921;-57
2023/01/08 08:49:42;;;;;;;;;;;;;;;;;;5038955;28;19928;-57
2023/01/08 08:52:08;;;;;;;;;;;;;;;;;;5036091;28;19921;-57
2023/01/08 08:54:33;;;;;;;;;;;;;;;;;;5038529;28;19912;-57
2023/01/08 08:56:58;;;;;;;;;;;;;;;;;;5037622;28;19962;-56
2023/01/08 08:59:23;;;;;;;;;;;;;;;;;;5036058;28;19916;-57
2023/01/08 09:01:49;;;;;;;;;;;;;;;;;;5036284;28;19983;-57
2023/01/08 09:04:14;;;;;;;;;;;;;;;;;;5037533;28;19970;-57
2023/01/08 09:06:39;;;;;;;;;;;;;;;;;;5034467;28;19959;-56
2023/01/08 09:09:04;;;;;;;;;;;;;;;;;;5037213;28;19913;-56
2023/01/08 09:11:30;;;;;;;;;;;;;;;;;;5037077;28;19943;-56
2023/01/08 09:13:55;;;;;;;;;;;;;;;;;;5038319;28;20362;-57
2023/01/08 09:16:20;;;;;;;;;;;;;;;;;;5035946;28;19943;-56
2023/01/08 09:18:47;;;;;;;;;;;;;;;;;;5034419;28;19939;-57
2023/01/08 09:21:13;;;;;;;;;;;;;;;;;;5050825;28;20008;-57
2023/01/08 09:23:38;;;;;;;;;;;;;;;;;;5035957;28;20058;-57
2023/01/08 09:26:04;;;;;;;;;;;;;;;;;;5035876;28;20031;-57
2023/01/08 09:28:29;;;;;;;;;;;;;;;;;;5037106;28;19920;-57
2023/01/08 09:30:55;;;;;;;;;;;;;;;;;;5032891;28;19970;-57
2023/01/08 09:33:20;;;;;;;;;;;;;;;;;;5036800;28;19966;-57
2023/01/08 09:35:45;;;;;;;;;;;;;;;;;;5034232;28;19964;-57
2023/01/08 09:38:10;;;;;;;;;;;;;;;;;;5032995;28;19923;-57
2023/01/08 09:40:59;;;;;;;;;;;;;;;;;;5033782;28;20012;-57
2023/01/08 09:43:26;;;;;;;;;;;;;;;;;;5035231;28;19921;-57
2023/01/08 09:45:54;;;;;;;;;;;;;;;;;;5037578;28;20398;-57
2023/01/08 09:48:21;;;;;;;;;;;;;;;;;;5038463;28;19917;-57
2023/01/08 09:50:47;;;;;;;;;;;;;;;;;;5034454;28;19928;-57
2023/01/08 09:53:14;;;;;;;;;;;;;;;;;;5034484;28;20418;-57
2023/01/08 09:55:39;;;;;;;;;;;;;;;;;;5036463;28;19928;-57
2023/01/08 09:58:12;;;;;;;;;;;;;;;;;;5036167;28;19913;-57
2023/01/08 10:00:37;;;;;;;;;;;;;;;;;;5033714;28;19917;-57
2023/01/08 10:03:02;;;;;;;;;;;;;;;;;;5035480;28;19913;-57
2023/01/08 10:05:28;;;;;;;;;;;;;;;;;;5035678;28;19917;-57
2023/01/08 10:07:53;;;;;;;;;;;;;;;;;;5035427;28;19963;-57
2023/01/08 10:10:21;;;;;;;;;;;;;;;;;;5034177;28;20385;-58
2023/01/08 10:12:46;;;;;;;;;;;;;;;;;;5037374;28;19920;-57
2023/01/08 10:15:14;;;;;;;;;;;;;;;;;;5034664;28;20702;-57
2023/01/08 10:17:41;;;;;;;;;;;;;;;;;;5037258;28;19917;-57
2023/01/08 10:20:10;;;;;;;;;;;;;;;;;;5035342;28;19990;-57
2023/01/08 10:22:35;;;;;;;;;;;;;;;;;;5034171;28;19921;-57
2023/01/08 10:25:05;;;;;;;;;;;;;;;;;;5032998;28;19921;-57
2023/01/08 10:27:30;;;;;;;;;;;;;;;;;;5035632;28;19988;-57
2023/01/08 10:30:04;;;;;;;;;;;;;;;;;;5037911;28;20429;-57
2023/01/08 10:32:33;;;;;;;;;;;;;;;;;;5035349;28;20733;-58
2023/01/08 10:35:01;;;;;;;;;;;;;;;;;;5034981;28;19917;-57
2023/01/08 10:37:43;;;;;;;;;;;;;;;;;;5035594;28;19924;-57
2023/01/08 10:40:29;;;;;;;;;;;;;;;;;;5034363;28;20084;-57
2023/01/08 10:42:54;;;;;;;;;;;;;;;;;;5034390;28;19963;-57
2023/01/08 10:45:24;;;;;;;;;;;;;;;;;;5033401;28;19940;-56
2023/01/08 10:47:51;;;;;;;;;;;;;;;;;;5034714;28;20042;-57
2023/01/08 10:50:22;;;;;;;;;;;;;;;;;;5034942;28;20260;-57
2023/01/08 10:52:52;;;;;;;;;;;;;;;;;;5036510;28;20393;-57
2023/01/08 10:55:22;;;;;;;;;;;;;;;;;;5036836;28;19931;-57
2023/01/08 10:57:55;;;;;;;;;;;;;;;;;;5035660;28;19928;-57
2023/01/08 11:00:25;;;;;;;;;;;;;;;;;;5034370;28;20415;-57
2023/01/08 11:02:50;;;;;;;;;;;;;;;;;;5032149;28;19913;-57
2023/01/08 11:05:16;;;;;;;;;;;;;;;;;;5033308;28;20262;-57
2023/01/08 11:07:41;;;;;;;;;;;;;;;;;;5034753;28;20377;-57
2023/01/08 11:10:24;;;;;;;;;;;;;;;;;;5033473;28;20011;-57
2023/01/08 11:12:59;;;;;;;;;;;;;;;;;;5035194;28;19913;-57
2023/01/08 11:15:42;;;;;;;;;;;;;;;;;;5032641;28;19963;-57
2023/01/08 11:18:21;;;;;;;;;;;;;;;;;;5035938;28;19928;-58
2023/01/08 11:20:46;;;;;;;;;;;;;;;;;;5031397;28;19917;-58
2023/01/08 11:23:20;;;;;;;;;;;;;;;;;;5034394;28;20369;-58
2023/01/08 11:25:58;;;;;;;;;;;;;;;;;;5034585;28;20712;-57
2023/01/08 11:28:27;;;;;;;;;;;;;;;;;;5035382;28;19919;-64
2023/01/08 11:31:06;;;;;;;;;;;;;;;;;;5033724;28;19927;-64
2023/01/08 11:33:35;;;;;;;;;;;;;;;;;;5037169;28;19986;-64
2023/01/08 11:36:19;;;;;;;;;;;;;;;;;;5033806;28;19947;-64
2023/01/08 11:38:44;;;;;;;;;;;;;;;;;;5032099;28;19924;-65
2023/01/08 11:41:22;;;;;;;;;;;;;;;;;;5034820;28;19917;-65
2023/01/08 11:44:10;;;;;;;;;;;;;;;;;;5036068;28;20328;-64
2023/01/08 11:46:38;;;;;;;;;;;;;;;;;;5033343;28;19939;-64
2023/01/08 11:49:06;;;;;;;;;;;;;;;;;;5031890;28;19917;-67
2023/01/08 11:51:32;;;;;;;;;;;;;;;;;;5033097;28;20285;-67
2023/01/08 11:54:07;;;;;;;;;;;;;;;;;;5035625;28;19920;-66
2023/01/08 11:56:52;;;;;;;;;;;;;;;;;;5034855;28;19909;-65
2023/01/08 11:59:38;;;;;;;;;;;;;;;;;;5033961;28;19917;-67
2023/01/08 12:02:19;;;;;;;;;;;;;;;;;;5035822;28;19917;-66
2023/01/08 12:04:44;;;;;;;;;;;;;;;;;;5050981;28;19917;-65
2023/01/08 12:07:10;;;;;;;;;;;;;;;;;;5031948;28;19927;-65
2023/01/08 12:09:44;;;;;;;;;;;;;;;;;;5030439;28;19928;-63
2023/01/08 12:12:31;;;;;;;;;;;;;;;;;;5029746;28;19963;-65
2023/01/08 12:14:57;;;;;;;;;;;;;;;;;;5035733;28;20362;-66
2023/01/08 12:17:42;;;;;;;;;;;;;;;;;;5035298;28;19960;-64
2023/01/08 12:20:23;;;;;;;;;;;;;;;;;;5032178;28;20884;-64
2023/01/08 12:23:05;;;;;;;;;;;;;;;;;;5035323;28;19916;-64
2023/01/08 12:25:43;;;;;;;;;;;;;;;;;;5038574;28;19921;-66
2023/01/08 12:28:14;;;;;;;;;;;;;;;;;;5036510;28;20254;-66
2023/01/08 12:30:42;;;;;;;;;;;;;;;;;;5037378;28;19979;-64
2023/01/08 12:33:10;;;;;;;;;;;;;;;;;;5051021;28;20292;-66
2023/01/08 12:35:38;;;;;;;;;;;;;;;;;;5036645;28;20376;-65
2023/01/08 12:38:05;;;;;;;;;;;;;;;;;;5036135;28;20003;-65
2023/01/08 12:40:41;;;;;;;;;;;;;;;;;;5036452;28;19977;-65
2023/01/08 12:43:12;;;;;;;;;;;;;;;;;;5038206;28;20427;-65
2023/01/08 12:45:39;;;;;;;;;;;;;;;;;;5037004;28;19921;-65
2023/01/08 12:48:10;;;;;;;;;;;;;;;;;;5039768;28;19954;-65
2023/01/08 12:50:42;;;;;;;;;;;;;;;;;;5044752;28;19924;-65
2023/01/08 12:53:12;;;;;;;;;;;;;;;;;;5037201;28;19976;-63
2023/01/08 12:55:41;;;;;;;;;;;;;;;;;;5035204;28;19979;-64
2023/01/08 12:58:12;;;;;;;;;;;;;;;;;;5040482;28;19927;-64
2023/01/08 13:00:58;;;;;;;;;;;;;;;;;;5036884;28;20006;-64
2023/01/08 13:03:25;;;;;;;;;;;;;;;;;;5038728;28;19917;-64
2023/01/08 13:05:51;;;;;;;;;;;;;;;;;;5033113;28;19965;-64
2023/01/08 13:08:22;;;;;;;;;;;;;;;;;;5036262;28;19940;-64
2023/01/08 13:10:49;;;;;;;;;;;;;;;;;;5037505;28;20677;-64
2023/01/08 13:13:25;;;;;;;;;;;;;;;;;;5039209;28;19916;-64
2023/01/08 13:15:51;;;;;;;;;;;;;;;;;;5036511;28;20060;-66
2023/01/08 13:18:18;;;;;;;;;;;;;;;;;;5037606;28;20528;-64
2023/01/08 13:20:54;;;;;;;;;;;;;;;;;;5038328;28;20079;-65
2023/01/08 13:23:26;;;;;;;;;;;;;;;;;;5037826;28;19967;-63
2023/01/08 13:25:53;;;;;;;;;;;;;;;;;;5037093;28;19917;-66
2023/01/08 13:28:27;;;;;;;;;;;;;;;;;;5037892;28;20019;-65
2023/01/08 13:30:54;;;;;;;;;;;;;;;;;;5046902;28;19963;-65
2023/01/08 13:33:25;;;;;;;;;;;;;;;;;;5033177;28;19966;-65
2023/01/08 13:35:50;;;;;;;;;;;;;;;;;;5034436;28;19913;-66
2023/01/08 13:38:17;;;;;;;;;;;;;;;;;;5038678;28;19974;-64
2023/01/08 13:40:42;;;;;;;;;;;;;;;;;;5036799;28;19913;-64
2023/01/08 13:43:24;;;;;;;;;;;;;;;;;;5035483;28;20014;-66
2023/01/08 13:46:03;;;;;;;;;;;;;;;;;;5036183;28;19963;-64
2023/01/08 13:48:37;;;;;;;;;;;;;;;;;;5034648;28;19916;-65
2023/01/08 13:51:02;;;;;;;;;;;;;;;;;;5038128;28;19999;-65
2023/01/08 13:53:28;;;;;;;;;;;;;;;;;;5038368;28;20019;-65
2023/01/08 13:55:55;;;;;;;;;;;;;;;;;;5035496;28;20321;-65
2023/01/08 13:58:25;;;;;;;;;;;;;;;;;;5035754;28;20019;-65
2023/01/08 14:00:52;;;;;;;;;;;;;;;;;;5036739;28;19917;-66
2023/01/08 14:03:20;;;;;;;;;;;;;;;;;;5033965;28;19927;-65
2023/01/08 14:05:45;;;;;;;;;;;;;;;;;;5038214;28;19927;-58
2023/01/08 14:08:19;;;;;;;;;;;;;;;;;;5033635;28;20366;-66
2023/01/08 14:10:45;;;;;;;;;;;;;;;;;;5037269;28;19924;-66
2023/01/08 14:13:13;;;;;;;;;;;;;;;;;;5036439;28;19917;-65
2023/01/08 14:15:38;;;;;;;;;;;;;;;;;;5035047;28;19970;-65
2023/01/08 14:18:04;;;;;;;;;;;;;;;;;;5037208;28;19924;-67
2023/01/08 14:20:33;;;;;;;;;;;;;;;;;;5037981;28;19916;-64
2023/01/08 14:22:59;;;;;;;;;;;;;;;;;;5032546;28;20768;-65
2023/01/08 14:25:25;;;;;;;;;;;;;;;;;;5035676;28;19921;-65
2023/01/08 14:27:54;;;;;;;;;;;;;;;;;;5038415;28;19931;-64
2023/01/08 14:30:20;;;;;;;;;;;;;;;;;;5032346;28;19919;-65
2023/01/08 14:32:45;;;;;;;;;;;;;;;;;;5033663;28;19913;-64
2023/01/08 14:35:14;;;;;;;;;;;;;;;;;;5038118;28;20012;-65
2023/01/08 14:37:39;;;;;;;;;;;;;;;;;;5034848;28;19913;-66
2023/01/08 14:40:12;;;;;;;;;;;;;;;;;;5031058;28;19917;-65
2023/01/08 14:42:45;;;;;;;;;;;;;;;;;;5033920;28;20267;-65
2023/01/08 14:45:19;;;;;;;;;;;;;;;;;;5049367;28;19912;-65
2023/01/08 14:47:48;;;;;;;;;;;;;;;;;;5034913;28;19937;-65
2023/01/08 14:50:22;;;;;;;;;;;;;;;;;;5032272;28;19917;-65
2023/01/08 14:52:49;;;;;;;;;;;;;;;;;;5033906;28;19920;-65
2023/01/08 14:55:17;;;;;;;;;;;;;;;;;;5035831;28;19917;-65
2023/01/08 14:57:46;;;;;;;;;;;;;;;;;;5034667;28;20545;-65
2023/01/08 15:00:15;;;;;;;;;;;;;;;;;;5032803;28;19917;-65
2023/01/08 15:02:41;;;;;;;;;;;;;;;;;;5034048;28;20362;-65
2023/01/08 15:05:12;;;;;;;;;;;;;;;;;;5034794;28;19921;-65
2023/01/08 15:07:37;;;;;;;;;;;;;;;;;;5035750;28;19932;-65
2023/01/08 15:10:22;;;;;;;;;;;;;;;;;;5038609;28;19923;-65
2023/01/08 15:12:55;;;;;;;;;;;;;;;;;;5036721;28;19981;-66
2023/01/08 15:15:23;;;;;;;;;;;;;;;;;;5030757;28;19916;-65
2023/01/08 15:17:49;;;;;;;;;;;;;;;;;;5035324;28;19913;-65
2023/01/08 15:20:18;;;;;;;;;;;;;;;;;;5043213;28;19923;-65
2023/01/08 15:22:44;;;;;;;;;;;;;;;;;;5034062;28;20380;-65
2023/01/08 15:25:17;;;;;;;;;;;;;;;;;;5034763;28;19924;-66
2023/01/08 15:27:48;;;;;;;;;;;;;;;;;;5035433;28;20340;-64
2023/01/08 15:30:24;;;;;;;;;;;;;;;;;;5033958;28;19947;-65
2023/01/08 15:32:49;;;;;;;;;;;;;;;;;;5033149;28;19920;-65
2023/01/08 15:35:16;;;;;;;;;;;;;;;;;;5032820;28;19917;-65
2023/01/08 15:37:41;;;;;;;;;;;;;;;;;;5033935;28;19975;-65
2023/01/08 15:40:08;;;;;;;;;;;;;;;;;;5034628;28;19920;-65
2023/01/08 15:45:21;;;;;;;;;;;;;;;;;;5034783;28;19959;-65
2023/01/08 15:47:47;;;;;;;;;;;;;;;;;;5035031;28;19948;-65
2023/01/08 15:50:12;;;;;;;;;;;;;;;;;;5033537;28;20384;-65
2023/01/08 15:52:39;;;;;;;;;;;;;;;;;;5034516;28;19921;-65
2023/01/08 15:55:05;;;;;;;;;;;;;;;;;;5033015;28;19916;-65
2023/01/08 15:57:30;;;;;;;;;;;;;;;;;;5031082;28;19947;-65
2023/01/08 15:59:55;;;;;;;;;;;;;;;;;;5032868;28;20035;-65
2023/01/08 16:02:23;;;;;;;;;;;;;;;;;;5035792;28;19920;-65
2023/01/08 16:04:52;;;;;;;;;;;;;;;;;;5032599;28;19948;-65
2023/01/08 16:07:18;;;;;;;;;;;;;;;;;;5036456;28;19923;-65
2023/01/08 16:09:43;;;;;;;;;;;;;;;;;;5030705;28;20251;-65
2023/01/08 16:12:08;;;;;;;;;;;;;;;;;;5034775;28;19999;-65
2023/01/08 16:14:36;;;;;;;;;;;;;;;;;;5032692;28;19913;-65
2023/01/08 16:17:03;;;;;;;;;;;;;;;;;;5032296;28;19912;-66
2023/01/08 16:19:29;;;;;;;;;;;;;;;;;;5034583;28;19963;-65
2023/01/08 16:21:54;;;;;;;;;;;;;;;;;;5031873;28;19983;-65
2023/01/08 16:24:19;;;;;;;;;;;;;;;;;;5034207;28;19916;-65
2023/01/08 16:26:44;;;;;;;;;;;;;;;;;;5031071;28;20405;-65
2023/01/08 16:29:10;;;;;;;;;;;;;;;;;;5034415;28;19913;-65
2023/01/08 16:31:35;;;;;;;;;;;;;;;;;;5030821;28;20342;-65
2023/01/08 16:34:03;;;;;;;;;;;;;;;;;;5035552;28;20302;-65
2023/01/08 16:36:29;;;;;;;;;;;;;;;;;;5033132;28;19913;-66
2023/01/08 16:38:54;;;;;;;;;;;;;;;;;;5032775;28;19920;-65
2023/01/08 16:41:19;;;;;;;;;;;;;;;;;;5030829;28;19928;-66
2023/01/08 16:43:45;;;;;;;;;;;;;;;;;;5036890;28;20647;-65
2023/01/08 16:46:15;;;;;;;;;;;;;;;;;;5036195;28;19920;-65
2023/01/08 16:48:41;;;;;;;;;;;;;;;;;;5036214;28;20313;-65
2023/01/08 16:51:06;;;;;;;;;;;;;;;;;;5034213;28;19932;-65
2023/01/08 16:53:32;;;;;;;;;;;;;;;;;;5033413;28;19916;-66